createdAt,value
2023-01-28T00:01:24.296Z,3.20
2023-01-28T00:03:50.858Z,3.35
2023-01-28T00:06:17.361Z,3.92
2023-01-28T00:08:43.817Z,3.80
2023-01-28T00:11:10.264Z,3.00
2023-01-28T00:13:36.724Z,2.90
2023-01-28T00:16:03.205Z,2.33
2023-01-28T00:18:29.710Z,2.42
2023-01-28T00:20:56.161Z,3.28
2023-01-28T00:23:22.590Z,2.70
2023-01-28T00:25:49.081Z,3.47
2023-01-28T00:28:15.520Z,3.30
2023-01-28T00:30:42.007Z,3.92
2023-01-28T00:33:08.977Z,3.03
2023-01-28T00:35:35.917Z,4.33
2023-01-28T00:38:02.355Z,2.67
2023-01-28T00:40:29.290Z,2.53
2023-01-28T00:42:55.760Z,3.30
2023-01-28T00:45:22.212Z,2.80
2023-01-28T00:47:48.655Z,2.47
2023-01-28T00:50:15.094Z,3.25
2023-01-28T00:52:41.608Z,3.05
2023-01-28T00:55:08.097Z,2.97
2023-01-28T00:57:34.537Z,2.72
2023-01-28T01:00:00.972Z,3.78
2023-01-28T01:02:27.532Z,4.05
2023-01-28T01:04:54.134Z,3.75
2023-01-28T01:07:20.588Z,3.22
2023-01-28T01:09:47.022Z,3.20
2023-01-28T01:12:13.507Z,3.58
2023-01-28T01:14:40.474Z,3.20
2023-01-28T01:17:07.132Z,2.77
2023-01-28T01:19:33.596Z,3.33
2023-01-28T01:22:00.066Z,2.45
2023-01-28T01:24:27.123Z,3.53
2023-01-28T01:26:53.633Z,3.63
2023-01-28T01:29:20.068Z,2.42
2023-01-28T01:31:46.558Z,2.78
2023-01-28T01:34:13.006Z,2.22
2023-01-28T01:36:39.433Z,4.20
2023-01-28T01:39:05.909Z,2.90
2023-01-28T01:41:32.403Z,2.20
2023-01-28T01:43:58.856Z,2.25
2023-01-28T01:46:25.381Z,2.78
2023-01-28T01:48:51.931Z,2.35
2023-01-28T01:51:18.376Z,2.88
2023-01-28T01:53:44.864Z,4.40
2023-01-28T01:56:11.305Z,3.60
2023-01-28T01:58:38.299Z,2.55
2023-01-28T02:01:04.741Z,3.03
2023-01-28T02:03:31.204Z,2.00
2023-01-28T02:05:57.658Z,2.53
2023-01-28T02:08:24.121Z,3.05
2023-01-28T02:10:50.612Z,3.03
2023-01-28T02:13:17.058Z,1.90
2023-01-28T02:15:43.537Z,2.50
2023-01-28T02:18:10.021Z,2.88
2023-01-28T02:20:36.536Z,2.45
2023-01-28T02:23:03.474Z,2.05
2023-01-28T02:25:29.940Z,1.95
2023-01-28T02:27:56.438Z,2.30
2023-01-28T02:30:22.960Z,2.22
2023-01-28T02:32:49.454Z,2.10
2023-01-28T02:35:16.247Z,2.78
2023-01-28T02:37:42.928Z,2.33
2023-01-28T02:40:09.377Z,2.20
2023-01-28T02:42:35.887Z,3.42
2023-01-28T02:45:02.403Z,2.50
2023-01-28T02:47:28.841Z,2.35
2023-01-28T02:49:55.322Z,2.05
2023-01-28T02:52:22.348Z,3.15
2023-01-28T02:54:49.333Z,2.23
2023-01-28T02:57:15.780Z,2.77
2023-01-28T02:59:42.257Z,2.30
2023-01-28T03:02:08.719Z,3.05
2023-01-28T03:04:35.172Z,2.70
2023-01-28T03:07:01.607Z,2.38
2023-01-28T03:09:28.103Z,3.05
2023-01-28T03:11:55.091Z,1.90
2023-01-28T03:14:21.614Z,2.60
2023-01-28T03:16:48.137Z,2.15
2023-01-28T03:19:14.632Z,2.85
2023-01-28T03:21:41.152Z,3.17
2023-01-28T03:24:07.650Z,2.15
2023-01-28T03:26:34.167Z,1.90
2023-01-28T03:29:00.659Z,1.80
2023-01-28T03:31:27.124Z,2.88
2023-01-28T03:33:53.572Z,2.20
2023-01-28T03:36:20.013Z,2.47
2023-01-28T03:38:46.503Z,2.78
2023-01-28T03:41:12.941Z,1.88
2023-01-28T03:43:39.422Z,2.70
2023-01-28T03:46:05.970Z,2.20
2023-01-28T03:48:32.490Z,2.67
2023-01-28T03:50:58.968Z,2.33
2023-01-28T03:53:25.451Z,1.67
2023-01-28T03:55:51.921Z,1.92
2023-01-28T03:58:18.417Z,1.92
2023-01-28T04:00:44.916Z,2.45
2023-01-28T04:03:11.412Z,2.30
2023-01-28T04:05:37.917Z,1.58
2023-01-28T04:08:04.380Z,1.88
2023-01-28T04:10:30.874Z,2.17
2023-01-28T04:12:57.319Z,2.15
2023-01-28T04:15:23.755Z,1.80
2023-01-28T04:17:50.259Z,2.35
2023-01-28T04:20:16.783Z,1.40
2023-01-28T04:22:43.744Z,1.70
2023-01-28T04:25:10.215Z,2.33
2023-01-28T04:27:36.660Z,1.73
2023-01-28T04:30:03.148Z,1.92
2023-01-28T04:32:30.111Z,2.17
2023-01-28T04:34:56.605Z,1.40
2023-01-28T04:37:23.055Z,1.50
2023-01-28T04:39:49.525Z,2.03
2023-01-28T04:42:16.017Z,1.70
2023-01-28T04:44:42.458Z,2.65
2023-01-28T04:47:08.967Z,1.13
2023-01-28T04:49:35.447Z,2.00
2023-01-28T04:52:02.380Z,1.75
2023-01-28T04:54:28.851Z,1.33
2023-01-28T04:56:55.290Z,1.30
2023-01-28T04:59:21.776Z,1.92
2023-01-28T05:01:48.265Z,1.58
2023-01-28T05:04:14.759Z,1.85
2023-01-28T05:06:41.244Z,2.30
2023-01-28T05:09:07.733Z,2.33
2023-01-28T05:11:36.777Z,2.17
2023-01-28T05:14:04.349Z,2.10
2023-01-28T05:16:30.841Z,1.52
2023-01-28T05:18:57.290Z,1.85
2023-01-28T05:21:24.287Z,2.03
2023-01-28T05:23:50.798Z,2.23
2023-01-28T05:26:17.241Z,1.95
2023-01-28T05:28:43.672Z,2.03
2023-01-28T05:31:10.624Z,1.40
2023-01-28T05:33:37.115Z,2.60
2023-01-28T05:36:03.595Z,1.55
2023-01-28T05:38:30.043Z,1.92
2023-01-28T05:40:56.487Z,2.45
2023-01-28T05:43:22.971Z,2.08
2023-01-28T05:45:49.474Z,1.55
2023-01-28T05:48:16.013Z,1.55
2023-01-28T05:50:42.500Z,1.60
2023-01-28T05:53:09.015Z,2.20
2023-01-28T05:55:35.525Z,2.28
2023-01-28T05:58:02.147Z,2.25
2023-01-28T06:00:28.610Z,1.23
2023-01-28T06:02:55.073Z,2.17
2023-01-28T06:05:22.094Z,1.40
2023-01-28T06:07:48.583Z,1.60
2023-01-28T06:10:15.405Z,1.65
2023-01-28T06:12:42.189Z,1.97
2023-01-28T06:15:08.656Z,1.70
2023-01-28T06:17:35.094Z,1.80
2023-01-28T06:20:01.602Z,2.28
2023-01-28T06:22:28.057Z,1.73
2023-01-28T06:24:54.571Z,1.77
2023-01-28T06:27:21.019Z,2.97
2023-01-28T06:29:47.497Z,1.33
2023-01-28T06:32:14.029Z,1.42
2023-01-28T06:34:41.024Z,2.35
2023-01-28T06:37:07.485Z,2.05
2023-01-28T06:39:33.939Z,1.65
2023-01-28T06:42:00.387Z,1.98
2023-01-28T06:44:26.860Z,2.58
2023-01-28T06:46:53.344Z,1.58
2023-01-28T06:49:19.776Z,2.17
2023-01-28T06:51:46.256Z,1.95
2023-01-28T06:54:12.703Z,1.98
2023-01-28T06:56:39.634Z,1.73
2023-01-28T06:59:06.093Z,1.63
2023-01-28T07:01:32.589Z,1.58
2023-01-28T07:03:59.109Z,1.80
2023-01-28T07:06:25.610Z,1.58
2023-01-28T07:08:52.103Z,2.03
2023-01-28T07:11:18.609Z,3.45
2023-01-28T07:13:45.137Z,1.85
2023-01-28T07:16:11.576Z,4.63
2023-01-28T07:18:38.040Z,1.52
2023-01-28T07:21:04.533Z,1.75
2023-01-28T07:23:30.981Z,1.73
2023-01-28T07:25:57.532Z,3.10
2023-01-28T07:28:24.021Z,1.90
2023-01-28T07:30:52.566Z,3.58
2023-01-28T07:33:20.045Z,3.97
2023-01-28T07:35:46.491Z,2.40
2023-01-28T07:38:12.940Z,4.20
2023-01-28T07:40:39.375Z,4.10
2023-01-28T07:43:05.872Z,2.42
2023-01-28T07:45:32.319Z,3.10
2023-01-28T07:47:58.775Z,1.98
2023-01-28T07:50:25.243Z,2.50
2023-01-28T07:52:52.239Z,2.22
2023-01-28T07:55:18.695Z,1.73
2023-01-28T07:57:45.120Z,2.67
2023-01-28T08:00:11.559Z,2.00
2023-01-28T08:02:38.039Z,6.07
2023-01-28T08:05:04.728Z,2.15
2023-01-28T08:07:31.297Z,4.05
2023-01-28T08:09:57.778Z,4.03
2023-01-28T08:12:24.232Z,8.93
2023-01-28T08:14:50.664Z,5.25
2023-01-28T08:17:17.143Z,3.33
2023-01-28T08:19:43.624Z,4.15
2023-01-28T08:22:10.115Z,3.13
2023-01-28T08:24:36.591Z,2.72
2023-01-28T08:27:03.080Z,3.17
2023-01-28T08:29:29.551Z,3.47
2023-01-28T08:31:56.027Z,2.92
2023-01-28T08:34:22.488Z,3.20
2023-01-28T08:36:48.924Z,2.05
2023-01-28T08:39:15.442Z,6.85
2023-01-28T08:41:42.392Z,2.80
2023-01-28T08:44:08.840Z,2.20
2023-01-28T08:46:35.303Z,2.58
2023-01-28T08:49:01.780Z,2.60
2023-01-28T08:51:28.269Z,5.10
2023-01-28T08:53:54.711Z,2.90
2023-01-28T08:56:21.203Z,3.25
2023-01-28T08:58:47.705Z,4.53
2023-01-28T09:01:14.246Z,3.80
2023-01-28T09:03:40.780Z,4.53
2023-01-28T09:06:07.295Z,4.72
2023-01-28T09:08:33.793Z,3.13
2023-01-28T09:11:00.255Z,4.78
2023-01-28T09:13:27.236Z,3.50
2023-01-28T09:15:53.805Z,2.10
2023-01-28T09:18:20.307Z,5.75
2023-01-28T09:20:46.788Z,4.63
2023-01-28T09:23:13.787Z,2.28
2023-01-28T09:25:40.280Z,3.73
2023-01-28T09:28:06.793Z,2.67
2023-01-28T09:30:35.983Z,2.53
2023-01-28T09:33:03.490Z,3.80
2023-01-28T09:35:29.942Z,6.63
2023-01-28T09:37:56.394Z,5.07
2023-01-28T09:40:22.944Z,5.47
2023-01-28T09:42:49.449Z,4.47
2023-01-28T09:45:15.938Z,5.38
2023-01-28T09:47:42.400Z,10.45
2023-01-28T09:50:08.888Z,6.60
2023-01-28T09:52:35.883Z,4.50
2023-01-28T09:55:02.340Z,2.27
2023-01-28T09:57:28.811Z,8.75
2023-01-28T09:59:55.320Z,3.15
2023-01-28T10:02:21.809Z,3.03
2023-01-28T10:04:48.291Z,5.03
2023-01-28T10:07:14.756Z,4.90
2023-01-28T10:09:41.192Z,5.68
2023-01-28T10:12:07.691Z,4.18
2023-01-28T10:14:34.172Z,2.40
2023-01-28T10:17:00.758Z,4.93
2023-01-28T10:19:27.760Z,5.07
2023-01-28T10:21:54.208Z,4.73
2023-01-28T10:24:20.704Z,4.50
2023-01-28T10:26:47.217Z,4.70
2023-01-28T10:29:13.669Z,4.25
2023-01-28T10:31:40.200Z,5.10
2023-01-28T10:34:06.729Z,3.80
2023-01-28T10:36:33.215Z,4.68
2023-01-28T10:38:59.658Z,2.53
2023-01-28T10:41:26.143Z,3.17
2023-01-28T10:43:52.642Z,4.30
2023-01-28T10:46:19.221Z,4.25
2023-01-28T10:48:45.690Z,3.42
2023-01-28T10:51:12.132Z,3.92
2023-01-28T10:53:38.576Z,3.15
2023-01-28T10:56:05.089Z,3.15
2023-01-28T10:58:31.529Z,4.20
2023-01-28T11:00:58.051Z,4.20
2023-01-28T11:03:24.514Z,4.15
2023-01-28T11:05:51.015Z,4.38
2023-01-28T11:08:17.457Z,3.80
2023-01-28T11:10:43.914Z,3.63
2023-01-28T11:13:10.399Z,3.28
2023-01-28T11:15:36.884Z,3.28
2023-01-28T11:18:03.386Z,2.95
2023-01-28T11:20:29.888Z,3.03
2023-01-28T11:22:56.368Z,3.15
2023-01-28T11:25:22.825Z,3.00
2023-01-28T11:27:49.303Z,2.65
2023-01-28T11:30:16.025Z,2.72
2023-01-28T11:32:42.672Z,2.28
2023-01-28T11:35:09.172Z,4.38
2023-01-28T11:37:35.615Z,4.10
2023-01-28T11:40:02.149Z,3.33
2023-01-28T11:42:28.594Z,2.30
2023-01-28T11:44:55.094Z,2.95
2023-01-28T11:47:21.566Z,2.72
2023-01-28T11:49:48.191Z,3.47
2023-01-28T11:52:14.726Z,4.45
2023-01-28T11:54:41.180Z,3.08
2023-01-28T11:57:07.806Z,4.38
2023-01-28T11:59:34.263Z,3.03
2023-01-28T12:02:00.757Z,2.83
2023-01-28T12:04:27.287Z,4.57
2023-01-28T12:06:53.759Z,3.03
2023-01-28T12:09:20.246Z,6.03
2023-01-28T12:11:46.723Z,5.63
2023-01-28T12:14:13.212Z,4.32
2023-01-28T12:16:39.714Z,5.25
2023-01-28T12:19:06.261Z,5.22
2023-01-28T12:21:32.753Z,3.80
2023-01-28T12:23:59.230Z,4.07
2023-01-28T12:26:25.750Z,4.97
2023-01-28T12:28:52.194Z,6.45
2023-01-28T12:31:18.785Z,6.70
2023-01-28T12:33:45.307Z,4.88
2023-01-28T12:36:11.749Z,4.47
2023-01-28T12:38:38.187Z,6.22
2023-01-28T12:41:04.672Z,5.68
2023-01-28T12:43:31.163Z,5.07
2023-01-28T12:45:57.705Z,4.22
2023-01-28T12:48:24.200Z,6.63
2023-01-28T12:50:50.681Z,7.78
2023-01-28T12:53:17.678Z,4.85
2023-01-28T12:55:44.143Z,9.00
2023-01-28T12:58:10.635Z,5.28
2023-01-28T13:00:37.128Z,7.00
2023-01-28T13:03:04.136Z,4.95
2023-01-28T13:05:30.577Z,15.70
2023-01-28T13:07:57.042Z,4.45
2023-01-28T13:10:23.531Z,3.65
2023-01-28T13:12:50.051Z,4.32
2023-01-28T13:15:16.774Z,8.10
2023-01-28T13:17:43.342Z,10.57
2023-01-28T13:20:09.843Z,5.63
2023-01-28T13:22:36.799Z,7.70
2023-01-28T13:25:03.308Z,9.02
2023-01-28T13:27:29.774Z,6.30
2023-01-28T13:29:56.206Z,8.13
2023-01-28T13:32:22.659Z,7.72
2023-01-28T13:34:49.144Z,9.68
2023-01-28T13:37:15.635Z,14.63
2023-01-28T13:39:42.114Z,13.38
2023-01-28T13:42:08.545Z,9.60
2023-01-28T13:44:34.990Z,6.55
2023-01-28T13:47:01.978Z,8.07
2023-01-28T13:49:28.425Z,6.07
2023-01-28T13:51:54.864Z,6.65
2023-01-28T13:54:21.303Z,4.78
2023-01-28T13:56:47.810Z,5.35
2023-01-28T13:59:14.278Z,5.97
2023-01-28T14:01:40.789Z,8.05
2023-01-28T14:04:08.586Z,4.28
2023-01-28T14:06:35.070Z,5.45
2023-01-28T14:09:01.578Z,6.30
2023-01-28T14:11:28.517Z,5.35
2023-01-28T14:13:54.971Z,3.33
2023-01-28T14:16:21.410Z,4.30
2023-01-28T14:18:47.841Z,4.35
2023-01-28T14:21:14.318Z,10.02
2023-01-28T14:23:40.793Z,5.90
2023-01-28T14:26:07.246Z,8.40
2023-01-28T14:28:33.686Z,4.60
2023-01-28T14:31:00.206Z,5.65
2023-01-28T14:33:26.668Z,5.65
2023-01-28T14:35:53.108Z,5.93
2023-01-28T14:38:19.539Z,4.32
2023-01-28T14:40:45.984Z,8.05
2023-01-28T14:43:12.508Z,7.15
2023-01-28T14:45:38.971Z,5.22
2023-01-28T14:48:05.439Z,8.18
2023-01-28T14:50:32.375Z,7.97
2023-01-28T14:52:58.886Z,8.90
2023-01-28T14:55:25.345Z,10.95
2023-01-28T14:57:52.351Z,5.82
2023-01-28T15:08:44.885Z,5.70
2023-01-28T15:11:18.696Z,8.83
2023-01-28T15:13:45.195Z,5.75
2023-01-28T15:18:58.401Z,8.10
2023-01-28T15:26:53.124Z,5.93
2023-01-28T15:29:26.875Z,4.60
2023-01-28T15:34:51.722Z,4.78
2023-01-28T15:40:05.259Z,4.90
2023-01-28T15:42:49.985Z,6.35
2023-01-28T15:48:18.385Z,12.50
2023-01-28T15:50:53.837Z,4.88
2023-01-28T15:53:20.336Z,7.07
2023-01-28T16:06:57.716Z,9.82
2023-01-28T16:15:09.287Z,6.93
2023-01-28T16:23:16.780Z,12.18
2023-01-28T16:25:43.299Z,10.87
2023-01-28T16:28:09.741Z,13.13
2023-01-28T16:30:36.224Z,8.35
2023-01-28T16:33:02.747Z,7.20
2023-01-28T16:35:42.560Z,13.43
2023-01-28T16:38:14.010Z,11.50
2023-01-28T16:40:40.536Z,10.93
2023-01-28T16:43:07.047Z,6.65
2023-01-28T16:45:33.544Z,4.60
2023-01-28T16:48:00.043Z,5.60
2023-01-28T16:50:26.524Z,6.38
2023-01-28T16:52:53.044Z,6.80
2023-01-28T16:55:19.576Z,6.88
2023-01-28T16:57:46.073Z,4.88
2023-01-28T17:00:12.564Z,4.03
2023-01-28T17:02:39.020Z,5.22
2023-01-28T17:05:05.576Z,6.65
2023-01-28T17:07:32.091Z,5.60
2023-01-28T17:09:58.585Z,9.55
2023-01-28T17:12:25.045Z,4.57
2023-01-28T17:14:51.528Z,3.92
2023-01-28T17:17:17.987Z,6.18
2023-01-28T17:19:44.489Z,6.82
2023-01-28T17:22:10.978Z,7.20
2023-01-28T17:24:37.479Z,5.75
2023-01-28T17:27:03.996Z,3.78
2023-01-28T17:29:31.116Z,9.03
2023-01-28T17:31:57.606Z,8.45
2023-01-28T17:34:24.050Z,5.30
2023-01-28T17:36:50.528Z,5.43
2023-01-28T17:39:17.012Z,3.65
2023-01-28T17:41:43.455Z,3.97
2023-01-28T17:44:09.929Z,5.53
2023-01-28T17:46:36.367Z,3.88
2023-01-28T17:49:02.842Z,3.47
2023-01-28T17:51:29.330Z,2.65
2023-01-28T17:53:55.841Z,3.97
2023-01-28T17:56:22.349Z,6.18
2023-01-28T17:58:48.871Z,4.88
2023-01-28T18:01:15.360Z,3.08
2023-01-28T18:03:41.852Z,4.10
2023-01-28T18:06:08.830Z,3.20
2023-01-28T18:08:35.305Z,2.23
2023-01-28T18:11:01.835Z,3.47
2023-01-28T18:13:28.288Z,5.50
2023-01-28T18:15:55.254Z,4.22
2023-01-28T18:18:21.747Z,4.80
2023-01-28T18:20:48.184Z,2.90
2023-01-28T18:23:14.632Z,2.90
2023-01-28T18:25:41.177Z,3.15
2023-01-28T18:28:07.674Z,4.20
2023-01-28T18:30:34.184Z,3.97
2023-01-28T18:33:00.674Z,2.88
2023-01-28T18:35:27.604Z,3.22
2023-01-28T18:37:54.046Z,6.10
2023-01-28T18:40:20.528Z,2.97
2023-01-28T18:42:46.993Z,3.53
2023-01-28T18:45:13.873Z,2.60
2023-01-28T18:47:40.565Z,2.80
2023-01-28T18:50:06.999Z,2.45
2023-01-28T18:52:33.522Z,3.95
2023-01-28T18:55:00.130Z,2.08
2023-01-28T18:57:27.187Z,4.03
2023-01-28T18:59:53.644Z,3.77
2023-01-28T19:02:20.157Z,3.25
2023-01-28T19:04:46.654Z,10.77
2023-01-28T19:07:13.130Z,7.40
2023-01-28T19:09:39.596Z,5.82
2023-01-28T19:12:06.077Z,9.55
2023-01-28T19:14:32.528Z,6.88
2023-01-28T19:16:59.008Z,4.78
2023-01-28T19:19:25.450Z,7.35
2023-01-28T19:21:51.940Z,6.57
2023-01-28T19:24:18.448Z,5.32
2023-01-28T19:26:44.971Z,4.32
2023-01-28T19:29:12.878Z,15.13
2023-01-28T19:31:40.437Z,5.68
2023-01-28T19:34:06.922Z,4.13
2023-01-28T19:36:33.393Z,7.30
2023-01-28T19:38:59.840Z,4.05
2023-01-28T19:41:26.312Z,5.88
2023-01-28T19:43:52.767Z,6.22
2023-01-28T19:46:19.235Z,9.57
2023-01-28T19:48:45.730Z,5.95
2023-01-28T19:51:12.166Z,5.35
2023-01-28T19:53:38.642Z,6.60
2023-01-28T19:56:05.092Z,6.88
2023-01-28T19:58:31.558Z,3.97
2023-01-28T20:00:58.039Z,3.70
2023-01-28T20:03:24.510Z,4.88
2023-01-28T20:05:51.016Z,4.30
2023-01-28T20:08:17.955Z,5.88
2023-01-28T20:10:44.454Z,6.60
2023-01-28T20:13:10.890Z,4.68
2023-01-28T20:15:37.380Z,5.15
2023-01-28T20:18:05.021Z,4.10
2023-01-28T20:20:31.551Z,4.13
2023-01-28T20:22:57.984Z,5.13
2023-01-28T20:25:24.485Z,6.85
2023-01-28T20:27:50.968Z,4.28
2023-01-28T20:30:17.402Z,4.40
2023-01-28T20:32:43.898Z,6.45
2023-01-28T20:35:10.334Z,5.75
2023-01-28T20:37:36.826Z,3.55
2023-01-28T20:40:03.307Z,5.63
2023-01-28T20:42:29.800Z,5.47
2023-01-28T20:44:56.244Z,4.18
2023-01-28T20:47:22.698Z,4.07
2023-01-28T20:49:49.185Z,5.13
2023-01-28T20:52:15.614Z,4.22
2023-01-28T20:54:42.128Z,5.38
2023-01-28T20:57:08.636Z,5.35
2023-01-28T20:59:35.151Z,7.07
2023-01-28T21:02:01.631Z,4.65
2023-01-28T21:04:28.083Z,7.47
2023-01-28T21:06:54.498Z,4.50
2023-01-28T21:09:20.959Z,4.88
2023-01-28T21:11:47.402Z,9.75
2023-01-28T21:14:13.825Z,4.65
2023-01-28T21:16:40.302Z,4.50
2023-01-28T21:19:06.776Z,6.40
2023-01-28T21:21:33.273Z,4.10
2023-01-28T21:23:59.795Z,5.22
2023-01-28T21:26:26.375Z,6.75
2023-01-28T21:28:52.842Z,4.35
2023-01-28T21:31:19.327Z,5.28
2023-01-28T21:33:45.806Z,4.82
2023-01-28T21:36:12.298Z,7.80
2023-01-28T21:38:38.734Z,4.32
2023-01-28T21:41:05.161Z,4.50
2023-01-28T21:43:31.635Z,7.43
2023-01-28T21:45:58.109Z,5.65
2023-01-28T21:48:24.562Z,4.45
2023-01-28T21:50:51.029Z,4.55
2023-01-28T21:53:17.516Z,4.80
2023-01-28T21:55:44.507Z,4.38
2023-01-28T21:58:10.946Z,5.83
2023-01-28T22:00:37.447Z,5.47
2023-01-28T22:03:03.937Z,4.22
2023-01-28T22:05:30.406Z,3.85
2023-01-28T22:07:56.930Z,7.03
2023-01-28T22:10:23.378Z,7.57
2023-01-28T22:12:49.881Z,4.65
2023-01-28T22:15:16.346Z,4.30
2023-01-28T22:17:42.852Z,5.00
2023-01-28T22:20:09.365Z,3.85
2023-01-28T22:22:35.820Z,4.88
2023-01-28T22:25:02.329Z,3.50
2023-01-28T22:27:28.989Z,4.53
2023-01-28T22:29:55.474Z,3.30
2023-01-28T22:32:21.948Z,3.95
2023-01-28T22:34:48.451Z,3.85
2023-01-28T22:37:14.921Z,3.42
2023-01-28T22:39:41.391Z,4.05
2023-01-28T22:42:07.897Z,4.80
2023-01-28T22:44:34.325Z,2.95
2023-01-28T22:47:00.808Z,2.63
2023-01-28T22:49:27.297Z,3.00
2023-01-28T22:51:53.791Z,4.00
2023-01-28T22:54:20.286Z,4.40
2023-01-28T22:56:46.736Z,8.00
2023-01-28T22:59:13.243Z,4.05
2023-01-28T23:01:39.763Z,3.47
2023-01-28T23:04:06.249Z,5.97
2023-01-28T23:06:32.724Z,3.85
2023-01-28T23:08:59.172Z,6.25
2023-01-28T23:11:25.797Z,3.13
2023-01-28T23:13:52.303Z,2.95
2023-01-28T23:16:18.786Z,3.55
2023-01-28T23:18:45.272Z,3.33
2023-01-28T23:21:12.258Z,5.43
2023-01-28T23:23:38.780Z,3.10
2023-01-28T23:26:07.042Z,3.00
2023-01-28T23:28:33.656Z,3.88
2023-01-28T23:31:00.304Z,5.60
2023-01-28T23:33:26.780Z,4.43
2023-01-28T23:35:53.276Z,4.47
2023-01-28T23:38:19.798Z,3.10
2023-01-28T23:40:46.305Z,2.72
2023-01-28T23:43:12.790Z,4.13
2023-01-28T23:45:39.293Z,8.25
2023-01-28T23:48:05.738Z,2.55
2023-01-28T23:50:32.218Z,4.70
2023-01-28T23:52:58.702Z,4.93
2023-01-28T23:55:25.164Z,4.38
2023-01-28T23:57:51.633Z,4.85
